createdAt,value
2023-03-12T00:00:20.400Z,97555.25
2023-03-12T00:03:00.096Z,97546.69
2023-03-12T00:05:34.340Z,97520.53
2023-03-12T00:08:03.846Z,97531.34
2023-03-12T00:10:35.229Z,97528.00
2023-03-12T00:13:04.405Z,97522.03
2023-03-12T00:15:33.622Z,97520.34
2023-03-12T00:20:43.138Z,97515.19
2023-03-12T00:23:12.386Z,97496.59
2023-03-12T00:25:46.338Z,97503.22
2023-03-12T00:28:16.022Z,97491.28
2023-03-12T00:30:45.499Z,97487.00
2023-03-12T00:33:15.104Z,97480.19
2023-03-12T00:35:44.199Z,97477.56
2023-03-12T00:38:13.475Z,97463.16
2023-03-12T00:40:45.740Z,97457.19
2023-03-12T00:43:20.096Z,97455.41
2023-03-12T00:45:49.254Z,97455.41
2023-03-12T00:48:18.504Z,97399.69
2023-03-12T00:50:47.760Z,97434.91
2023-03-12T00:53:17.058Z,97439.94
2023-03-12T00:55:48.321Z,97439.00
2023-03-12T00:58:22.726Z,97374.00
2023-03-12T01:00:57.519Z,97432.06
2023-03-12T01:03:26.938Z,97409.91
2023-03-12T01:05:56.412Z,97407.31
2023-03-12T01:08:30.925Z,97391.31
2023-03-12T01:11:02.197Z,97400.50
2023-03-12T01:13:31.673Z,97404.53
2023-03-12T01:16:00.924Z,97402.84
2023-03-12T01:18:30.183Z,97385.69
2023-03-12T01:20:59.400Z,97386.50
2023-03-12T01:23:28.743Z,97388.97
2023-03-12T01:25:58.969Z,97364.34
2023-03-12T01:28:30.152Z,97372.66
2023-03-12T01:30:59.408Z,97364.97
2023-03-12T01:33:28.668Z,97363.25
2023-03-12T01:35:59.840Z,97364.00
2023-03-12T01:38:29.190Z,97355.44
2023-03-12T01:41:06.022Z,97353.66
2023-03-12T01:43:39.663Z,97353.56
2023-03-12T01:49:18.104Z,97343.34
2023-03-12T01:51:59.830Z,97331.31
2023-03-12T01:54:35.349Z,97317.78
2023-03-12T01:57:09.703Z,97335.41
2023-03-12T01:59:46.373Z,97322.63
2023-03-12T02:02:26.653Z,97308.97
2023-03-12T02:05:06.885Z,97314.84
2023-03-12T02:07:37.155Z,97298.66
2023-03-12T02:10:07.554Z,97296.06
2023-03-12T02:12:36.678Z,97287.44
2023-03-12T02:15:09.606Z,97292.44
2023-03-12T02:17:40.079Z,97276.22
2023-03-12T02:20:22.997Z,97273.59
2023-03-12T02:23:01.265Z,97272.63
2023-03-12T02:25:42.186Z,97266.63
2023-03-12T02:28:14.311Z,97269.19
2023-03-12T02:30:53.654Z,97264.00
2023-03-12T02:33:23.090Z,97241.00
2023-03-12T02:35:54.280Z,97252.91
2023-03-12T02:38:43.388Z,97249.38
2023-03-12T02:41:18.376Z,97240.94
2023-03-12T02:43:51.705Z,97239.16
2023-03-12T02:46:26.267Z,97223.88
2023-03-12T02:48:56.930Z,97233.13
2023-03-12T02:51:26.161Z,97224.50
2023-03-12T02:53:55.324Z,97213.41
2023-03-12T02:56:29.343Z,97209.97
2023-03-12T02:58:59.223Z,97193.91
2023-03-12T03:01:33.377Z,97198.00
2023-03-12T03:04:04.134Z,97193.69
2023-03-12T03:06:34.036Z,97186.88
2023-03-12T03:09:03.693Z,97194.63
2023-03-12T03:11:35.610Z,97183.47
2023-03-12T03:14:06.846Z,97170.84
2023-03-12T03:16:39.340Z,97174.78
2023-03-12T03:19:09.976Z,97147.91
2023-03-12T03:21:39.422Z,97151.97
2023-03-12T03:24:09.081Z,97171.16
2023-03-12T03:26:45.340Z,97154.06
2023-03-12T03:29:16.542Z,97161.78
2023-03-12T03:31:45.985Z,97156.63
2023-03-12T03:34:15.267Z,97154.13
2023-03-12T03:36:44.752Z,97151.53
2023-03-12T03:39:17.018Z,97143.13
2023-03-12T03:41:48.518Z,97145.56
2023-03-12T03:44:22.303Z,97153.09
2023-03-12T03:46:53.116Z,97133.50
2023-03-12T03:49:24.772Z,97118.38
2023-03-12T03:51:54.295Z,97119.13
2023-03-12T03:54:30.997Z,97092.78
2023-03-12T03:57:03.467Z,97120.38
2023-03-12T03:59:38.884Z,97096.81
2023-03-12T04:02:08.193Z,97109.31
2023-03-12T04:04:43.589Z,97108.41
2023-03-12T04:07:13.260Z,97109.09
2023-03-12T04:09:42.933Z,97103.91
2023-03-12T04:12:14.263Z,97101.31
2023-03-12T04:14:44.986Z,97077.78
2023-03-12T04:17:14.538Z,97081.13
2023-03-12T04:19:49.123Z,97081.84
2023-03-12T04:22:23.663Z,97055.09
2023-03-12T04:24:52.774Z,97073.22
2023-03-12T04:27:24.509Z,97021.16
2023-03-12T04:29:53.974Z,97066.19
2023-03-12T04:32:24.223Z,97062.13
2023-03-12T04:34:58.753Z,97059.56
2023-03-12T04:37:28.255Z,97064.63
2023-03-12T04:40:07.173Z,97058.59
2023-03-12T04:42:38.895Z,97056.00
2023-03-12T04:45:12.017Z,97044.91
2023-03-12T04:47:45.634Z,97044.94
2023-03-12T04:50:20.475Z,97044.84
2023-03-12T04:52:49.751Z,97041.28
2023-03-12T04:55:19.136Z,97047.28
2023-03-12T04:57:50.834Z,97037.69
2023-03-12T05:00:20.282Z,97033.97
2023-03-12T05:02:55.062Z,97020.28
2023-03-12T05:05:24.876Z,97022.16
2023-03-12T05:07:54.206Z,97018.66
2023-03-12T05:10:28.732Z,97013.41
2023-03-12T05:13:00.356Z,96984.94
2023-03-12T05:15:29.864Z,97006.34
2023-03-12T05:17:59.510Z,97001.97
2023-03-12T05:20:28.809Z,96998.41
2023-03-12T05:23:03.068Z,96987.34
2023-03-12T05:25:32.656Z,96983.72
2023-03-12T05:28:04.670Z,96976.03
2023-03-12T05:30:34.794Z,96996.22
2023-03-12T05:33:04.086Z,96980.03
2023-03-12T05:35:34.395Z,96971.53
2023-03-12T05:38:03.626Z,96972.09
2023-03-12T05:40:33.091Z,96937.66
2023-03-12T05:43:04.368Z,96975.09
2023-03-12T05:45:35.339Z,96972.38
2023-03-12T05:48:10.086Z,96958.59
2023-03-12T05:50:39.472Z,96949.28
2023-03-12T05:53:09.377Z,96962.28
2023-03-12T05:55:44.875Z,96952.84
2023-03-12T05:58:16.091Z,96927.53
2023-03-12T06:00:51.527Z,96937.25
2023-03-12T06:03:21.073Z,96940.16
2023-03-12T06:05:50.256Z,96941.00
2023-03-12T06:08:26.287Z,96949.38
2023-03-12T06:10:56.534Z,96958.72
2023-03-12T06:13:34.021Z,96939.00
2023-03-12T06:16:06.162Z,96928.00
2023-03-12T06:18:37.116Z,96938.03
2023-03-12T06:21:11.098Z,96937.84
2023-03-12T06:23:47.193Z,96930.22
2023-03-12T06:26:23.647Z,96929.13
2023-03-12T06:29:00.335Z,96930.91
2023-03-12T06:31:29.496Z,96931.59
2023-03-12T06:34:03.846Z,96924.63
2023-03-12T06:36:33.195Z,96900.91
2023-03-12T06:41:41.724Z,96913.25
2023-03-12T06:44:13.174Z,96919.94
2023-03-12T06:46:53.929Z,96906.13
2023-03-12T06:49:23.024Z,96894.88
2023-03-12T06:51:52.762Z,96889.75
2023-03-12T06:54:21.995Z,96905.00
2023-03-12T06:56:52.764Z,96895.56
2023-03-12T06:59:23.881Z,96894.53
2023-03-12T07:01:53.326Z,96889.56
2023-03-12T07:04:27.851Z,96888.75
2023-03-12T07:06:57.177Z,96884.34
2023-03-12T07:09:26.280Z,96861.41
2023-03-12T07:12:00.604Z,96874.84
2023-03-12T07:14:31.928Z,96867.34
2023-03-12T07:17:02.062Z,96861.19
2023-03-12T07:19:31.968Z,96830.31
2023-03-12T07:22:01.049Z,96863.09
2023-03-12T07:24:30.304Z,96824.69
2023-03-12T07:26:59.354Z,96857.25
2023-03-12T07:29:35.896Z,96853.00
2023-03-12T07:32:05.312Z,96838.50
2023-03-12T07:34:34.698Z,96840.56
2023-03-12T07:37:04.661Z,96835.94
2023-03-12T07:39:33.913Z,96836.00
2023-03-12T07:42:03.487Z,96824.78
2023-03-12T07:44:42.538Z,96815.59
2023-03-12T07:47:23.088Z,96808.78
2023-03-12T07:49:58.193Z,96812.78
2023-03-12T07:52:28.191Z,96815.13
2023-03-12T07:55:03.373Z,96817.50
2023-03-12T07:57:32.998Z,96810.69
2023-03-12T08:00:06.899Z,96808.88
2023-03-12T08:02:41.651Z,96799.41
2023-03-12T08:05:11.737Z,96801.09
2023-03-12T08:07:40.927Z,96796.97
2023-03-12T08:10:11.973Z,96794.41
2023-03-12T08:12:41.430Z,96783.38
2023-03-12T08:15:14.393Z,96784.72
2023-03-12T08:17:44.121Z,96767.59
2023-03-12T08:20:14.750Z,96776.84
2023-03-12T08:22:44.131Z,96772.41
2023-03-12T08:25:13.793Z,96757.91
2023-03-12T08:27:48.162Z,96767.16
2023-03-12T08:30:20.381Z,96709.94
2023-03-12T08:32:49.687Z,96757.41
2023-03-12T08:35:18.913Z,96752.13
2023-03-12T08:37:48.200Z,96744.09
2023-03-12T08:40:18.399Z,96732.88
2023-03-12T08:42:47.766Z,96717.53
2023-03-12T08:45:19.250Z,96718.34
2023-03-12T08:47:48.573Z,96713.00
2023-03-12T08:50:19.963Z,96712.88
2023-03-12T08:52:49.176Z,96700.69
2023-03-12T08:55:18.547Z,96702.38
2023-03-12T08:57:47.909Z,96698.91
2023-03-12T09:00:20.087Z,96704.88
2023-03-12T09:02:56.691Z,96692.94
2023-03-12T09:05:27.742Z,96681.28
2023-03-12T09:07:57.127Z,96692.03
2023-03-12T09:10:29.448Z,96684.66
2023-03-12T09:13:00.190Z,96687.22
2023-03-12T09:15:31.527Z,96689.72
2023-03-12T09:18:01.228Z,96662.97
2023-03-12T09:20:30.390Z,96674.56
2023-03-12T09:22:59.663Z,96670.09
2023-03-12T09:25:28.886Z,96658.97
2023-03-12T09:28:04.885Z,96664.13
2023-03-12T09:30:36.330Z,96668.50
2023-03-12T09:33:05.840Z,96660.03
2023-03-12T09:35:36.344Z,96644.56
2023-03-12T09:38:14.279Z,96643.50
2023-03-12T09:40:48.321Z,96641.84
2023-03-12T09:46:19.866Z,96633.13
2023-03-12T09:48:51.405Z,96628.22
2023-03-12T09:51:32.279Z,96626.69
2023-03-12T09:54:04.118Z,96613.16
2023-03-12T09:56:35.045Z,96614.19
2023-03-12T09:59:13.694Z,96608.63
2023-03-12T10:01:57.898Z,96614.13
2023-03-12T10:04:56.301Z,96570.31
2023-03-12T10:07:34.801Z,96597.75
2023-03-12T10:10:13.378Z,96556.06
2023-03-12T10:12:55.830Z,96581.84
2023-03-12T10:15:36.100Z,96573.81
2023-03-12T10:18:21.645Z,96573.97
2023-03-12T10:21:07.066Z,96570.13
2023-03-12T10:23:48.173Z,96551.59
2023-03-12T10:26:25.269Z,96549.91
2023-03-12T10:29:04.623Z,96553.34
2023-03-12T10:31:38.757Z,96543.50
2023-03-12T10:34:19.426Z,96542.94
2023-03-12T10:36:49.114Z,96543.59
2023-03-12T10:39:21.964Z,96532.34
2023-03-12T10:41:57.402Z,96535.06
2023-03-12T10:44:27.459Z,96508.50
2023-03-12T10:47:06.731Z,96525.28
2023-03-12T10:49:44.408Z,96508.88
2023-03-12T10:52:18.953Z,96497.03
2023-03-12T10:54:49.593Z,96520.53
2023-03-12T10:57:20.185Z,96507.03
2023-03-12T10:59:51.059Z,96516.19
2023-03-12T11:02:43.505Z,96512.53
2023-03-12T11:05:25.590Z,96505.75
2023-03-12T11:08:01.447Z,96503.44
2023-03-12T11:10:44.224Z,96504.88
2023-03-12T11:13:32.950Z,96499.97
2023-03-12T11:16:04.216Z,96501.19
2023-03-12T11:18:36.263Z,96500.44
2023-03-12T11:21:32.166Z,96487.59
2023-03-12T11:24:13.207Z,96488.25
2023-03-12T11:26:49.961Z,96493.09
2023-03-12T11:29:28.128Z,96486.44
2023-03-12T11:32:04.151Z,96489.53
2023-03-12T11:34:41.216Z,96487.56
2023-03-12T11:37:17.380Z,96483.75
2023-03-12T11:40:09.649Z,96476.94
2023-03-12T11:42:59.886Z,96465.16
2023-03-12T11:45:38.182Z,96460.16
2023-03-12T11:51:09.742Z,96448.72
2023-03-12T11:54:18.422Z,96461.16
2023-03-12T11:56:50.844Z,96465.56
2023-03-12T11:59:40.954Z,96462.50
2023-03-12T12:02:35.101Z,96456.06
2023-03-12T12:05:22.848Z,96446.03
2023-03-12T12:08:07.337Z,96461.41
2023-03-12T12:10:47.083Z,96456.91
2023-03-12T12:13:24.419Z,96466.03
2023-03-12T12:16:02.510Z,96437.00
2023-03-12T12:18:47.859Z,96447.28
2023-03-12T12:21:39.204Z,96489.44
2023-03-12T12:24:18.256Z,96506.19
2023-03-12T12:26:58.808Z,96520.75
2023-03-12T12:29:43.530Z,96561.09
2023-03-12T12:32:18.374Z,96538.91
2023-03-12T12:35:04.144Z,96565.13
2023-03-12T12:37:46.418Z,96540.84
2023-03-12T12:40:23.228Z,96519.56
2023-03-12T12:43:03.049Z,96580.91
2023-03-12T12:53:01.315Z,96617.88
2023-03-12T12:55:36.937Z,96639.66
2023-03-12T12:58:14.115Z,96633.38
2023-03-12T13:00:49.671Z,96617.47
2023-03-12T13:03:21.742Z,96651.38
2023-03-12T13:05:58.016Z,96640.75
2023-03-12T13:08:38.895Z,96684.69
2023-03-12T13:11:24.726Z,96641.03
2023-03-12T13:14:20.375Z,96667.38
2023-03-12T13:16:50.441Z,96674.59
2023-03-12T13:19:27.891Z,96660.47
2023-03-12T13:22:13.298Z,96666.72
2023-03-12T13:24:52.786Z,96650.03
2023-03-12T13:27:26.019Z,96688.38
2023-03-12T13:29:57.638Z,96682.66
2023-03-12T13:33:05.508Z,96709.88
2023-03-12T13:35:43.997Z,96702.75
2023-03-12T13:38:14.496Z,96727.78
2023-03-12T13:41:02.468Z,96730.47
2023-03-12T13:43:52.607Z,96687.06
2023-03-12T13:46:35.585Z,96753.09
2023-03-12T13:49:12.669Z,96745.63
2023-03-12T13:51:52.677Z,96764.25
2023-03-12T13:54:25.440Z,96768.81
2023-03-12T13:57:06.317Z,96782.56
2023-03-12T13:59:36.162Z,96760.88
2023-03-12T14:02:17.528Z,96805.75
2023-03-12T14:04:46.835Z,96786.28
2023-03-12T14:07:41.953Z,96788.13
2023-03-12T14:10:30.487Z,96772.03
2023-03-12T14:13:22.629Z,96797.81
2023-03-12T14:15:59.652Z,96845.50
2023-03-12T14:18:33.430Z,96817.75
2023-03-12T14:21:08.788Z,96863.03
2023-03-12T14:23:42.887Z,96873.28
2023-03-12T14:26:24.054Z,96864.91
2023-03-12T14:29:00.912Z,96851.66
2023-03-12T14:31:32.436Z,96884.38
2023-03-12T14:34:07.625Z,96887.16
2023-03-12T14:36:43.208Z,96871.69
2023-03-12T14:39:22.309Z,96897.94
2023-03-12T14:41:57.739Z,96928.47
2023-03-12T14:44:30.214Z,96879.47
2023-03-12T14:47:05.637Z,96867.63
2023-03-12T14:49:40.810Z,96927.66
2023-03-12T14:52:15.422Z,96932.66
2023-03-12T14:54:56.281Z,96954.69
2023-03-12T14:57:26.331Z,96970.72
2023-03-12T14:59:59.354Z,96973.19
2023-03-12T15:02:29.875Z,96982.47
2023-03-12T15:05:02.097Z,96981.66
2023-03-12T15:07:41.275Z,96987.56
2023-03-12T15:10:21.841Z,96906.38
2023-03-12T15:12:52.272Z,96937.78
2023-03-12T15:15:36.669Z,97008.03
2023-03-12T15:18:09.422Z,96986.13
2023-03-12T15:20:45.569Z,96997.19
2023-03-12T15:23:16.735Z,97021.78
2023-03-12T15:25:47.064Z,97048.06
2023-03-12T15:28:30.485Z,97046.44
2023-03-12T15:31:12.048Z,97049.84
2023-03-12T15:33:42.424Z,97042.28
2023-03-12T15:36:32.185Z,97092.94
2023-03-12T15:39:07.236Z,97128.41
2023-03-12T15:41:51.072Z,97112.41
2023-03-12T15:44:22.978Z,97152.94
2023-03-12T15:47:07.875Z,97115.84
2023-03-12T15:49:39.694Z,97115.03
2023-03-12T15:52:26.561Z,97147.09
2023-03-12T15:55:04.570Z,97195.25
2023-03-12T15:57:35.526Z,97216.31
2023-03-12T16:00:29.768Z,97167.38
2023-03-12T16:03:05.487Z,97237.41
2023-03-12T16:05:37.500Z,97258.47
2023-03-12T16:08:17.899Z,97261.84
2023-03-12T16:10:48.502Z,97274.50
2023-03-12T16:13:20.268Z,97269.44
2023-03-12T16:15:50.274Z,97282.06
2023-03-12T16:18:23.236Z,97273.63
2023-03-12T16:20:54.817Z,97301.44
2023-03-12T16:23:29.706Z,97264.25
2023-03-12T16:26:00.688Z,97301.44
2023-03-12T16:28:43.678Z,97309.84
2023-03-12T16:31:17.544Z,97361.28
2023-03-12T16:33:49.258Z,97352.84
2023-03-12T16:36:19.948Z,97362.16
2023-03-12T16:38:55.974Z,97336.03
2023-03-12T16:41:24.997Z,97389.13
2023-03-12T16:43:55.531Z,97358.78
2023-03-12T16:46:25.238Z,97370.63
2023-03-12T16:48:56.411Z,97421.19
2023-03-12T16:51:33.017Z,97451.47
2023-03-12T16:54:10.354Z,97442.16
2023-03-12T16:59:27.112Z,97395.81
2023-03-12T17:01:56.679Z,97404.16
2023-03-12T17:04:27.854Z,97451.28
2023-03-12T17:07:02.143Z,97488.44
2023-03-12T17:09:36.935Z,97496.94
2023-03-12T17:12:11.668Z,97522.25
2023-03-12T17:14:41.287Z,97540.75
2023-03-12T17:17:11.112Z,97507.84
2023-03-12T17:19:42.397Z,97536.53
2023-03-12T17:22:11.950Z,97502.91
2023-03-12T17:24:41.100Z,97522.22
2023-03-12T17:27:10.301Z,97536.63
2023-03-12T17:29:39.448Z,97559.44
2023-03-12T17:32:08.927Z,97567.91
2023-03-12T17:34:38.637Z,97567.03
2023-03-12T17:37:10.170Z,97557.72
2023-03-12T17:39:39.410Z,97545.97
2023-03-12T17:42:09.557Z,97599.91
2023-03-12T17:44:39.282Z,97620.97
2023-03-12T17:47:08.608Z,97626.03
2023-03-12T17:49:37.867Z,97601.41
2023-03-12T17:52:07.380Z,97605.78
2023-03-12T17:54:43.624Z,97598.88
2023-03-12T17:57:12.819Z,97619.25
2023-03-12T17:59:42.143Z,97635.31
2023-03-12T18:02:17.702Z,97642.88
2023-03-12T18:04:47.479Z,97655.44
2023-03-12T18:07:16.808Z,97606.53
2023-03-12T18:09:52.984Z,97608.41
2023-03-12T18:12:22.332Z,97645.44
2023-03-12T18:14:51.517Z,97661.50
2023-03-12T18:17:20.824Z,97670.53
2023-03-12T18:19:49.859Z,97699.28
2023-03-12T18:22:19.551Z,97708.63
2023-03-12T18:24:49.008Z,97723.78
2023-03-12T18:27:20.056Z,97701.91
2023-03-12T18:29:49.277Z,97726.50
2023-03-12T18:32:23.500Z,97725.63
2023-03-12T18:34:52.920Z,97702.00
2023-03-12T18:37:22.537Z,97731.59
2023-03-12T18:39:51.998Z,97722.34
2023-03-12T18:42:23.388Z,97740.94
2023-03-12T18:44:52.693Z,97767.88
2023-03-12T18:47:21.852Z,97762.03
2023-03-12T18:49:54.608Z,97777.25
2023-03-12T18:52:24.241Z,97783.22
2023-03-12T18:54:53.353Z,97784.03
2023-03-12T18:57:24.568Z,97759.47
2023-03-12T18:59:53.886Z,97772.16
2023-03-12T19:02:23.473Z,97815.94
2023-03-12T19:04:55.574Z,97858.13
2023-03-12T19:07:38.889Z,97849.81
2023-03-12T19:10:10.385Z,97881.06
2023-03-12T19:12:52.054Z,97883.56
2023-03-12T19:15:28.500Z,97864.16
2023-03-12T19:17:58.005Z,97825.75
2023-03-12T19:23:05.071Z,97880.13
2023-03-12T19:25:37.206Z,97885.75
2023-03-12T19:30:48.816Z,97884.88
2023-03-12T19:33:19.866Z,97901.81
2023-03-12T19:35:49.658Z,97905.84
2023-03-12T19:38:18.936Z,97891.75
2023-03-12T19:40:57.070Z,97924.56
2023-03-12T19:43:33.186Z,97932.16
2023-03-12T19:46:02.437Z,97939.66
2023-03-12T19:48:34.362Z,97946.44
2023-03-12T19:51:06.912Z,97943.91
2023-03-12T19:53:36.241Z,97955.50
2023-03-12T19:56:06.906Z,97928.44
2023-03-12T19:58:38.173Z,97976.47
2023-03-12T20:01:07.546Z,97982.19
2023-03-12T20:03:43.056Z,97967.88
2023-03-12T20:06:14.197Z,97978.06
2023-03-12T20:08:44.083Z,97983.94
2023-03-12T20:11:13.341Z,97971.38
2023-03-12T20:13:44.902Z,97980.56
2023-03-12T20:16:19.715Z,97945.53
2023-03-12T20:18:53.908Z,98002.34
2023-03-12T20:21:23.232Z,98005.53
2023-03-12T20:23:52.300Z,98014.63
2023-03-12T20:26:21.477Z,97999.31
2023-03-12T20:28:52.528Z,98014.41
2023-03-12T20:31:21.701Z,97983.47
2023-03-12T20:33:50.770Z,98024.78
2023-03-12T20:36:20.014Z,98034.81
2023-03-12T20:38:51.014Z,98019.63
2023-03-12T20:41:20.620Z,98043.22
2023-03-12T20:43:56.465Z,98050.84
2023-03-12T20:46:25.895Z,98047.41
2023-03-12T20:48:56.770Z,98030.47
2023-03-12T20:51:32.781Z,98060.88
2023-03-12T20:54:02.096Z,98060.84
2023-03-12T20:56:37.813Z,98056.66
2023-03-12T20:59:08.804Z,98068.38
2023-03-12T21:01:38.328Z,98068.28
2023-03-12T21:04:07.527Z,98080.94
2023-03-12T21:06:41.843Z,98097.59
2023-03-12T21:09:11.901Z,98110.19
2023-03-12T21:11:41.555Z,98099.31
2023-03-12T21:14:17.769Z,98101.84
2023-03-12T21:16:47.521Z,98114.53
2023-03-12T21:19:16.787Z,98105.06
2023-03-12T21:21:45.927Z,98119.31
2023-03-12T21:24:15.043Z,98115.06
2023-03-12T21:26:44.276Z,98126.66
2023-03-12T21:29:20.780Z,98127.38
2023-03-12T21:31:53.312Z,98140.59
2023-03-12T21:34:27.620Z,98116.72
2023-03-12T21:36:56.878Z,98146.28
2023-03-12T21:39:26.724Z,98140.38
2023-03-12T21:41:55.893Z,98141.41
2023-03-12T21:44:27.164Z,98142.06
2023-03-12T21:47:01.630Z,98135.34
2023-03-12T21:49:30.710Z,98143.88
2023-03-12T21:52:00.488Z,98177.56
2023-03-12T21:54:34.919Z,98159.75
2023-03-12T21:57:04.768Z,98158.03
2023-03-12T21:59:35.931Z,98176.34
2023-03-12T22:02:05.347Z,98167.94
2023-03-12T22:04:34.623Z,98179.59
2023-03-12T22:07:03.870Z,98181.41
2023-03-12T22:09:33.275Z,98195.50
2023-03-12T22:12:02.970Z,98207.22
2023-03-12T22:14:37.423Z,98207.09
2023-03-12T22:17:14.411Z,98205.25
2023-03-12T22:19:43.642Z,98216.09
2023-03-12T22:22:12.799Z,98231.28
2023-03-12T22:24:42.058Z,98226.31
2023-03-12T22:27:11.546Z,98243.75
2023-03-12T22:29:40.659Z,98235.63
2023-03-12T22:32:09.854Z,98238.91
2023-03-12T22:34:45.999Z,98243.03
2023-03-12T22:37:15.609Z,98253.94
2023-03-12T22:39:45.014Z,98254.81
2023-03-12T22:42:14.162Z,98268.28
2023-03-12T22:44:43.977Z,98272.38
2023-03-12T22:47:13.127Z,98285.66
2023-03-12T22:49:44.335Z,98280.44
2023-03-12T22:52:13.508Z,98289.63
2023-03-12T22:54:42.620Z,98293.66
2023-03-12T22:59:48.348Z,98293.63
2023-03-12T23:02:17.583Z,98288.66
2023-03-12T23:04:48.728Z,98303.56
2023-03-12T23:07:18.057Z,98301.78
2023-03-12T23:09:53.873Z,98288.09
2023-03-12T23:12:23.075Z,98318.81
2023-03-12T23:14:52.573Z,98322.34
2023-03-12T23:17:22.211Z,98323.38
2023-03-12T23:19:53.246Z,98325.94
2023-03-12T23:22:27.628Z,98328.69
2023-03-12T23:24:56.782Z,98299.03
2023-03-12T23:27:25.869Z,98326.34
2023-03-12T23:30:00.147Z,98340.91
2023-03-12T23:32:29.386Z,98335.94
2023-03-12T23:35:00.574Z,98343.00
2023-03-12T23:37:30.333Z,98345.59
2023-03-12T23:39:59.482Z,98343.31
2023-03-12T23:42:34.674Z,98335.75
2023-03-12T23:45:03.977Z,98351.16
2023-03-12T23:47:33.085Z,98357.09
2023-03-12T23:50:04.496Z,98352.97
2023-03-12T23:52:33.715Z,98363.03
2023-03-12T23:55:02.807Z,98374.13
2023-03-12T23:57:32.165Z,98376.00
